Time;durP1;ratioP1;P1;durP2;ratioP2;P2;SDS_P1;SDS_P2;PMS_P1;PMS_P2;Temp;Humidity;BMP_temperature;BMP_pressure;BME280_temperature;BME280_humidity;BME280_pressure;Samples;Min_cycle;Max_cycle;Signal;HPM_P1;HPM_P2
2021/03/04 00:01:18;;;;;;;35.78;21.93;;;;;;;7.41;72.64;100607.16;2828781;84;21259;-62
2021/03/04 00:05:22;;;;;;;30.48;19.07;;;;;;;7.47;72.29;100595.33;2819662;84;21149;-62
2021/03/04 00:09:25;;;;;;;30.77;19.65;;;;;;;7.48;72.37;100599.68;2899147;81;22266;-61
2021/03/04 00:13:29;;;;;;;27.05;17.57;;;;;;;7.52;72.06;100592.77;2873221;82;21556;-62
2021/03/04 00:17:34;;;;;;;29.05;19.98;;;;;;;7.46;71.66;100589.17;2873371;82;21148;-62
2021/03/04 00:21:38;;;;;;;32.33;20.10;;;;;;;7.46;71.56;100577.27;2873400;82;21204;-62
2021/03/04 00:25:41;;;;;;;27.48;18.80;;;;;;;7.46;71.34;100583.88;2873101;82;21136;-62
2021/03/04 00:29:46;;;;;;;19.62;14.98;;;;;;;7.44;71.16;100576.52;2866198;81;21177;-62
2021/03/04 00:33:55;;;;;;;26.00;16.45;;;;;;;7.50;70.60;100569.53;2828870;84;21631;-62
2021/03/04 00:37:58;;;;;;;25.02;15.43;;;;;;;7.54;70.02;100563.08;2828978;84;21169;-62
2021/03/04 00:42:01;;;;;;;24.32;16.55;;;;;;;7.57;69.54;100557.58;2829222;84;21152;-62
2021/03/04 00:46:06;;;;;;;30.77;17.85;;;;;;;7.61;69.30;100555.59;2828990;84;21165;-62
2021/03/04 00:50:12;;;;;;;31.55;18.07;;;;;;;7.64;69.31;100549.23;2828983;84;21239;-62
2021/03/04 00:54:15;;;;;;;23.62;15.45;;;;;;;7.60;69.12;100543.30;2829033;84;21181;-62
2021/03/04 00:58:19;;;;;;;28.75;16.97;;;;;;;7.55;69.47;100537.44;2829144;84;21176;-62
2021/03/04 01:02:24;;;;;;;28.57;18.23;;;;;;;7.50;69.84;100544.38;2828795;84;21559;-62
2021/03/04 01:06:28;;;;;;;32.10;15.35;;;;;;;7.46;70.12;100542.86;2831197;82;21168;-62
2021/03/04 01:10:38;;;;;;;28.35;17.92;;;;;;;7.42;70.55;100540.03;2853694;82;21161;-61
2021/03/04 01:14:41;;;;;;;29.52;18.45;;;;;;;7.44;71.32;100528.87;2881139;82;21169;-62
2021/03/04 01:18:44;;;;;;;25.88;18.15;;;;;;;7.52;71.44;100521.76;2880960;82;21196;-62
2021/03/04 01:22:49;;;;;;;25.50;18.32;;;;;;;7.54;71.41;100521.18;2881040;82;21544;-62
2021/03/04 01:26:52;;;;;;;26.37;17.10;;;;;;;7.58;71.74;100514.27;2881143;82;21165;-63
2021/03/04 01:30:57;;;;;;;33.92;20.10;;;;;;;7.63;71.99;100502.52;2881217;82;21117;-62
2021/03/04 01:35:01;;;;;;;26.65;17.17;;;;;;;7.66;72.00;100499.66;2830044;84;21197;-62
2021/03/04 01:39:07;;;;;;;32.85;18.07;;;;;;;7.69;72.19;100492.87;2804119;84;21189;-62
2021/03/04 01:43:10;;;;;;;28.10;17.17;;;;;;;7.74;72.26;100487.24;2830370;84;21186;-62
2021/03/04 01:47:14;;;;;;;27.30;17.77;;;;;;;7.81;72.07;100490.70;2783491;85;21158;-63
2021/03/04 01:51:18;;;;;;;28.73;18.05;;;;;;;7.80;72.21;100487.69;2781194;85;21165;-62
2021/03/04 01:55:24;;;;;;;31.25;19.42;;;;;;;7.82;72.38;100479.16;2780981;85;21148;-62
2021/03/04 01:59:28;;;;;;;25.00;16.73;;;;;;;7.91;72.42;100475.53;2783504;85;21210;-61
2021/03/04 02:03:35;;;;;;;27.58;15.68;;;;;;;7.99;72.34;100467.44;2780884;85;21180;-63
2021/03/04 02:08:29;;;;;;;31.62;19.35;;;;;;;8.07;72.32;100460.30;2781380;85;22135;-62
2021/03/04 02:12:50;;;;;;;25.92;16.40;;;;;;;8.13;72.25;100467.81;2779573;85;21186;-62
2021/03/04 02:16:56;;;;;;;28.40;19.65;;;;;;;8.22;72.12;100466.80;2825299;84;21117;-63
2021/03/04 02:21:40;;;;;;;36.25;20.12;;;;;;;8.34;71.99;100464.63;2825345;84;21172;-62
2021/03/04 02:26:12;;;;;;;24.15;17.32;;;;;;;8.40;71.71;100453.59;2825556;84;21141;-62
2021/03/04 02:30:19;;;;;;;21.97;17.23;;;;;;;8.51;71.47;100446.73;2825428;84;21635;-62
2021/03/04 02:34:26;;;;;;;37.38;21.27;;;;;;;8.64;71.22;100449.35;2825459;84;21165;-62
2021/03/04 02:38:33;;;;;;;25.77;19.30;;;;;;;8.70;70.95;100439.16;2825606;84;21137;-62
2021/03/04 02:42:40;;;;;;;28.85;19.98;;;;;;;8.69;70.91;100432.16;2825277;84;21153;-62
2021/03/04 02:46:44;;;;;;;34.65;23.15;;;;;;;8.65;71.08;100429.37;2825497;84;21172;-61
2021/03/04 02:50:51;;;;;;;28.10;20.30;;;;;;;8.61;71.26;100426.54;2821130;84;21596;-61
2021/03/04 02:54:55;;;;;;;;;;;;;;;8.50;71.54;100425.15;2828128;84;21173;-62
2021/03/04 02:59:04;;;;;;;38.42;22.90;;;;;;;8.41;71.89;100428.77;2825300;84;20481;-61
2021/03/04 03:03:13;;;;;;;31.33;20.30;;;;;;;8.33;72.16;100417.02;2783938;84;21578;-63
2021/03/04 03:07:18;;;;;;;32.80;22.73;;;;;;;8.25;72.47;100413.11;2864383;83;21141;-62
2021/03/04 03:11:22;;;;;;;44.80;24.15;;;;;;;8.23;72.71;100414.16;2858416;82;21122;-62
2021/03/04 03:15:29;;;;;;;39.17;24.40;;;;;;;8.24;72.85;100410.09;2852231;83;21130;-62
2021/03/04 03:19:33;;;;;;;34.95;24.32;;;;;;;8.23;72.97;100400.45;2852172;83;21197;-62
2021/03/04 03:23:39;;;;;;;37.00;24.05;;;;;;;8.18;73.21;100395.09;2851927;83;21173;-59
2021/03/04 03:27:46;;;;;;;38.83;22.80;;;;;;;8.18;73.51;100389.33;2852246;83;21133;-59
2021/03/04 03:31:53;;;;;;;39.18;26.30;;;;;;;8.15;73.84;100393.03;2851940;83;21165;-62
2021/03/04 03:36:18;;;;;;;38.40;25.35;;;;;;;8.18;74.03;100388.01;2851733;83;21536;-62
2021/03/04 03:40:28;;;;;;;50.90;26.37;;;;;;;8.19;74.33;100396.33;2736092;87;21159;-62
2021/03/04 03:44:32;;;;;;;48.92;31.55;;;;;;;8.23;74.61;100404.42;2770626;85;21223;-62
2021/03/04 03:48:35;;;;;;;51.45;28.67;;;;;;;8.27;74.67;100398.44;2786317;85;21208;-62
2021/03/04 03:52:40;;;;;;;41.77;28.27;;;;;;;8.28;74.87;100400.13;2786173;85;21636;-61
2021/03/04 03:56:45;;;;;;;59.53;35.70;;;;;;;8.37;74.91;100396.81;2786084;85;21167;-61
2021/03/04 04:00:49;;;;;;;44.93;32.42;;;;;;;8.43;74.74;100403.00;2785963;85;21159;-62
2021/03/04 04:05:15;;;;;;;42.58;31.07;;;;;;;8.39;74.60;100408.16;2786169;85;21718;-62
2021/03/04 04:09:18;;;;;;;49.40;33.83;;;;;;;8.35;74.82;100408.01;2731584;87;21164;-61
2021/03/04 04:13:23;;;;;;;51.83;34.88;;;;;;;8.24;74.82;100406.12;2803499;84;21631;-62
2021/03/04 04:17:27;;;;;;;50.85;35.30;;;;;;;8.15;75.00;100403.63;2731971;87;21148;-62
2021/03/04 04:21:32;;;;;;;47.62;32.00;;;;;;;8.07;75.13;100403.34;2803825;84;21536;-62
2021/03/04 04:25:58;;;;;;;46.25;32.17;;;;;;;8.00;75.49;100415.29;2754733;86;21177;-62
2021/03/04 04:30:04;;;;;;;49.98;35.73;;;;;;;7.94;75.70;100410.42;2782551;84;21169;-61
2021/03/04 04:34:07;;;;;;;43.85;31.23;;;;;;;7.90;76.00;100398.35;2776529;85;21626;-61
2021/03/04 04:38:11;;;;;;;50.70;35.70;;;;;;;7.86;76.23;100395.92;2817815;84;21146;-62
2021/03/04 04:42:16;;;;;;;55.23;34.33;;;;;;;7.85;76.46;100390.22;2817640;83;21336;-62
2021/03/04 04:46:20;;;;;;;50.98;34.78;;;;;;;7.86;76.48;100390.63;2825563;84;21179;-61
2021/03/04 04:50:28;;;;;;;57.73;36.88;;;;;;;7.85;76.62;100374.33;2825589;84;21165;-62
2021/03/04 04:54:32;;;;;;;51.95;36.33;;;;;;;7.84;76.68;100372.64;2825580;84;21152;-61
2021/03/04 04:58:35;;;;;;;55.30;37.35;;;;;;;7.83;76.59;100369.63;2826547;84;21154;-61
2021/03/04 05:02:40;;;;;;;59.60;39.90;;;;;;;7.82;76.79;100367.92;2851757;83;21196;-61
2021/03/04 05:06:43;;;;;;;56.88;37.80;;;;;;;7.82;76.80;100361.80;2851846;83;21129;-61
2021/03/04 05:10:46;;;;;;;53.33;36.70;;;;;;;7.81;76.72;100350.84;2851930;83;21133;-61
2021/03/04 05:14:53;;;;;;;57.23;37.13;;;;;;;7.80;76.81;100349.14;2876456;82;21164;-62
2021/03/04 05:19:02;;;;;;;49.70;32.95;;;;;;;7.79;76.71;100344.31;2879522;82;21176;-62
2021/03/04 05:23:06;;;;;;;54.75;36.03;;;;;;;7.74;76.75;100335.84;2879353;82;21128;-63
2021/03/04 05:27:10;;;;;;;57.53;36.98;;;;;;;7.72;76.70;100336.44;2870489;82;21571;-63
2021/03/04 05:31:15;;;;;;;52.57;38.07;;;;;;;7.74;76.70;100344.25;2845726;83;21173;-62
2021/03/04 05:35:18;;;;;;;60.05;38.45;;;;;;;7.71;76.78;100333.42;2845232;83;21172;-63
2021/03/04 05:39:22;;;;;;;59.75;40.85;;;;;;;7.76;76.91;100331.29;2845533;83;22209;-63
2021/03/04 05:43:26;;;;;;;52.03;37.20;;;;;;;7.79;76.80;100335.04;2845401;83;21688;-63
2021/03/04 05:47:30;;;;;;;52.33;36.48;;;;;;;7.81;76.56;100333.62;2829128;83;21157;-63
2021/03/04 05:51:43;;;;;;;66.57;42.25;;;;;;;7.71;75.84;100326.80;2778895;85;21235;-62
2021/03/04 05:55:47;;;;;;;60.80;42.05;;;;;;;7.69;76.72;100319.44;2779966;84;21650;-62
2021/03/04 05:59:55;;;;;;;51.73;37.30;;;;;;;7.67;76.34;100322.67;2787366;84;21173;-62
2021/03/04 06:04:02;;;;;;;60.52;40.03;;;;;;;7.64;76.63;100332.98;2826361;84;21181;-62
2021/03/04 06:08:09;;;;;;;69.37;44.58;;;;;;;7.66;76.85;100320.95;2861204;82;21153;-62
2021/03/04 06:12:13;;;;;;;55.80;38.92;;;;;;;7.70;76.99;100319.80;2814498;83;21153;-61
2021/03/04 06:16:18;;;;;;;71.55;41.40;;;;;;;7.74;77.25;100309.37;2845124;83;21158;-62
2021/03/04 06:20:22;;;;;;;54.03;40.38;;;;;;;7.81;77.77;100313.27;2845264;83;21166;-62
2021/03/04 06:24:27;;;;;;;51.70;34.65;;;;;;;7.91;77.80;100308.67;2845302;83;21158;-61
2021/03/04 06:28:32;;;;;;;63.58;43.38;;;;;;;7.90;77.79;100303.00;2862406;82;21192;-61
2021/03/04 06:32:40;;;;;;;66.85;45.38;;;;;;;7.96;78.06;100299.91;2850822;82;21143;-62
2021/03/04 06:37:07;;;;;;;54.60;39.53;;;;;;;8.08;78.14;100300.38;2845680;82;21163;-61
2021/03/04 06:41:25;;;;;;;61.10;41.37;;;;;;;8.24;77.94;100292.16;2846236;82;21622;-61
2021/03/04 06:45:33;;;;;;;62.17;42.27;;;;;;;8.38;77.58;100287.19;2824135;83;21625;-62
2021/03/04 06:49:43;;;;;;;61.40;39.27;;;;;;;8.41;77.28;100292.75;2835907;82;21168;-62
2021/03/04 06:53:53;;;;;;;82.08;49.42;;;;;;;8.40;77.03;100301.66;2837613;82;21149;-62
2021/03/04 06:58:02;;;;;;;78.22;51.90;;;;;;;8.42;77.18;100305.05;2833208;84;22073;-63
2021/03/04 07:02:08;;;;;;;60.23;37.28;;;;;;;8.49;76.91;100303.62;2844371;82;21164;-63
2021/03/04 07:06:14;;;;;;;63.78;40.55;;;;;;;8.56;77.05;100310.69;2828452;82;21172;-62
2021/03/04 07:10:19;;;;;;;64.72;42.55;;;;;;;8.69;76.87;100304.00;2806245;83;21431;-62
2021/03/04 07:14:24;;;;;;;59.77;39.85;;;;;;;8.79;76.61;100299.72;2831236;84;21169;-63
2021/03/04 07:18:28;;;;;;;61.33;42.67;;;;;;;8.89;76.86;100298.56;2845295;82;21137;-62
2021/03/04 07:22:33;;;;;;;63.50;43.02;;;;;;;9.03;76.81;100291.35;2836445;82;21192;-61
2021/03/04 07:26:39;;;;;;;56.45;41.95;;;;;;;9.21;76.74;100292.61;2852813;82;21148;-61
2021/03/04 07:30:43;;;;;;;62.45;44.73;;;;;;;9.38;76.86;100290.48;2875292;82;21172;-63
2021/03/04 07:34:47;;;;;;;67.45;44.80;;;;;;;9.56;76.73;100290.39;2813236;84;21630;-61
2021/03/04 07:38:58;;;;;;;72.58;44.80;;;;;;;9.72;76.43;100294.01;2854898;82;21164;-62
2021/03/04 07:43:03;;;;;;;74.15;50.08;;;;;;;9.84;76.02;100282.93;2833224;84;21164;-63
2021/03/04 07:47:10;;;;;;;73.28;49.80;;;;;;;10.00;75.99;100286.53;2824097;82;21171;-62
2021/03/04 07:51:15;;;;;;;70.85;48.35;;;;;;;10.09;75.52;100292.93;2877078;82;21172;-61
2021/03/04 07:55:20;;;;;;;74.70;51.53;;;;;;;10.20;75.26;100289.88;2738775;84;21170;-63
2021/03/04 07:59:25;;;;;;;70.52;45.50;;;;;;;10.29;75.04;100283.34;2883170;82;21144;-63
2021/03/04 08:03:29;;;;;;;78.70;48.00;;;;;;;10.37;74.45;100276.07;2837836;82;21170;-62
2021/03/04 08:07:34;;;;;;;62.70;44.95;;;;;;;10.48;74.11;100285.03;2829979;84;21259;-62
2021/03/04 08:11:41;;;;;;;63.80;44.83;;;;;;;10.50;73.75;100279.93;2827233;82;21172;-63
2021/03/04 08:15:47;;;;;;;63.08;40.23;;;;;;;10.56;72.70;100277.27;2830236;82;21172;-62
2021/03/04 08:19:55;;;;;;;60.12;41.10;;;;;;;10.66;72.02;100265.38;2821087;84;21175;-62
2021/03/04 08:24:00;;;;;;;53.85;37.93;;;;;;;10.75;71.33;100263.30;2806876;84;21601;-64
2021/03/04 08:28:07;;;;;;;72.95;42.55;;;;;;;10.79;70.84;100256.75;2813736;83;21713;-62
2021/03/04 08:32:14;;;;;;;64.37;40.92;;;;;;;10.91;70.44;100253.54;2788761;84;21197;-62
2021/03/04 08:36:19;;;;;;;46.37;33.35;;;;;;;10.98;69.66;100258.69;2837923;83;21135;-62
2021/03/04 08:40:23;;;;;;;62.73;36.38;;;;;;;10.98;68.89;100249.38;2834145;82;21184;-62
2021/03/04 08:44:26;;;;;;;53.23;37.28;;;;;;;11.13;70.09;100250.39;2826385;84;21176;-62
2021/03/04 08:48:30;;;;;;;70.42;41.77;;;;;;;11.33;69.21;100261.16;2819580;82;21190;-63
2021/03/04 08:52:40;;;;;;;54.27;37.75;;;;;;;11.38;69.32;100246.95;2814725;84;21162;-62
2021/03/04 08:56:58;;;;;;;57.03;36.85;;;;;;;11.42;68.92;100243.08;2833320;84;21174;-62
2021/03/04 09:01:04;;;;;;;71.25;44.48;;;;;;;11.35;68.65;100241.89;2815025;84;21194;-63
2021/03/04 09:05:13;;;;;;;51.05;37.50;;;;;;;11.29;69.18;100247.25;2809846;84;21610;-63
2021/03/04 09:09:30;;;;;;;70.97;42.95;;;;;;;11.33;70.74;100257.16;2831105;84;21136;-62
2021/03/04 09:13:37;;;;;;;60.03;44.80;;;;;;;11.34;70.32;100248.20;2799954;84;21176;-62
2021/03/04 09:17:45;;;;;;;58.48;39.78;;;;;;;11.31;69.22;100248.47;2827094;82;21647;-63
2021/03/04 09:21:49;;;;;;;63.17;43.78;;;;;;;11.39;70.56;100245.98;2851454;82;21176;-62
2021/03/04 09:25:57;;;;;;;58.48;43.13;;;;;;;11.58;69.74;100241.25;2820836;82;21171;-62
2021/03/04 09:30:00;;;;;;;60.50;42.43;;;;;;;11.71;70.06;100241.02;2823334;82;22130;-62
2021/03/04 09:34:05;;;;;;;66.28;43.42;;;;;;;12.01;69.71;100236.67;2823433;82;29367;-63
2021/03/04 09:38:08;;;;;;;71.70;46.68;;;;;;;12.11;68.91;100236.69;2830470;83;21173;-62
2021/03/04 09:42:15;;;;;;;69.82;44.80;;;;;;;12.25;69.18;100228.78;2832216;83;21188;-62
2021/03/04 09:46:38;;;;;;;67.67;45.85;;;;;;;12.39;68.83;100217.72;2831355;84;21160;-62
2021/03/04 09:50:53;;;;;;;66.47;37.70;;;;;;;12.57;68.84;100229.00;2832923;82;21144;-62
2021/03/04 09:55:17;;;;;;;63.08;45.15;;;;;;;12.61;67.56;100231.77;2831092;84;21620;-62
2021/03/04 09:59:22;;;;;;;64.12;43.42;;;;;;;12.62;67.15;100222.77;2832146;84;21631;-62
2021/03/04 10:03:36;;;;;;;68.42;41.40;;;;;;;12.62;67.05;100217.44;2831324;84;21178;-62
2021/03/04 10:07:40;;;;;;;53.13;36.88;;;;;;;12.69;67.23;100209.20;2827194;84;21115;-61
2021/03/04 10:11:43;;;;;;;63.63;41.70;;;;;;;12.75;66.49;100210.95;2823178;82;21192;-62
2021/03/04 10:15:47;;;;;;;68.02;42.10;;;;;;;12.68;65.12;100198.18;2810294;84;21183;-63
2021/03/04 10:19:51;;;;;;;56.75;41.80;;;;;;;12.71;66.03;100208.56;2835891;83;21618;-65
2021/03/04 10:23:54;;;;;;;56.42;35.85;;;;;;;12.74;65.64;100197.25;2850128;83;21169;-62
2021/03/04 10:27:59;;;;;;;51.33;36.77;;;;;;;12.73;64.85;100195.09;2830577;83;21176;-63
2021/03/04 10:32:02;;;;;;;61.53;40.85;;;;;;;12.77;64.26;100191.15;2811519;82;21634;-62
2021/03/04 10:36:06;;;;;;;56.55;39.23;;;;;;;12.84;64.38;100192.75;2783181;84;21205;-61
2021/03/04 10:40:12;;;;;;;65.55;40.88;;;;;;;12.94;63.92;100190.90;2821084;82;21186;-62
2021/03/04 10:44:17;;;;;;;54.55;35.80;;;;;;;13.01;64.90;100184.49;2800092;82;21472;-62
2021/03/04 10:48:21;;;;;;;58.98;40.90;;;;;;;13.17;65.25;100174.56;2833498;83;21161;-62
2021/03/04 10:52:25;;;;;;;63.95;41.58;;;;;;;13.25;63.39;100185.34;2821315;82;21157;-62
2021/03/04 10:56:28;;;;;;;61.58;41.35;;;;;;;13.32;64.18;100172.73;2757302;84;21144;-62
2021/03/04 11:00:31;;;;;;;65.37;42.45;;;;;;;13.39;64.43;100163.16;2836246;83;21164;-62
2021/03/04 11:04:35;;;;;;;57.13;43.98;;;;;;;13.41;64.82;100159.84;2849723;82;21177;-62
2021/03/04 11:08:38;;;;;;;63.98;45.25;;;;;;;13.58;65.73;100140.87;2830002;82;21167;-61
2021/03/04 11:12:41;;;;;;;63.65;44.35;;;;;;;13.68;65.79;100147.49;2821615;84;21168;-62
2021/03/04 11:16:44;;;;;;;66.95;47.03;;;;;;;13.68;63.58;100138.99;2828719;82;21196;-62
2021/03/04 11:20:48;;;;;;;71.10;49.95;;;;;;;13.77;65.16;100141.75;2823543;82;21320;-61
2021/03/04 11:24:50;;;;;;;72.00;49.50;;;;;;;13.70;64.47;100132.14;2867207;82;21196;-62
2021/03/04 11:28:53;;;;;;;72.62;46.40;;;;;;;13.73;64.59;100140.38;2856591;82;21197;-61
2021/03/04 11:32:57;;;;;;;68.05;48.20;;;;;;;13.68;63.97;100124.77;2833315;82;21505;-61
2021/03/04 11:37:02;;;;;;;77.22;46.95;;;;;;;13.63;63.29;100121.72;2824062;84;21146;-62
2021/03/04 11:41:05;;;;;;;67.67;49.75;;;;;;;13.68;65.29;100116.27;2828696;82;21203;-62
2021/03/04 11:45:10;;;;;;;75.85;49.38;;;;;;;13.67;64.12;100105.72;2827894;82;21523;-62
2021/03/04 11:49:13;;;;;;;77.50;49.13;;;;;;;13.76;65.83;100102.16;2827550;84;21160;-61
2021/03/04 11:53:16;;;;;;;71.28;53.25;;;;;;;13.77;63.95;100087.80;2833239;84;21183;-62
2021/03/04 11:57:19;;;;;;;79.55;51.05;;;;;;;13.75;64.05;100083.59;2833495;84;21186;-62
2021/03/04 12:01:22;;;;;;;70.00;52.05;;;;;;;13.69;63.75;100078.34;2844831;82;21171;-62
2021/03/04 12:05:25;;;;;;;69.53;50.43;;;;;;;13.69;63.89;100081.02;2881752;82;21204;-62
2021/03/04 12:09:28;;;;;;;63.48;45.52;;;;;;;13.81;63.69;100075.80;2867716;82;21165;-62
2021/03/04 12:13:31;;;;;;;73.90;47.40;;;;;;;13.89;63.86;100067.50;2830707;82;21984;-61
2021/03/04 12:17:35;;;;;;;75.42;47.30;;;;;;;13.77;62.52;100074.91;2814062;84;21179;-63
2021/03/04 12:21:38;;;;;;;79.77;53.25;;;;;;;13.63;64.23;100077.62;2875202;82;21179;-64
2021/03/04 12:25:41;;;;;;;76.90;52.80;;;;;;;13.64;64.15;100063.27;2854330;82;21167;-67
2021/03/04 12:29:44;;;;;;;80.62;53.98;;;;;;;13.64;64.16;100053.91;2832078;83;21481;-63
2021/03/04 12:33:48;;;;;;;82.82;54.65;;;;;;;13.64;64.22;100057.41;2849272;82;21606;-63
2021/03/04 12:37:51;;;;;;;75.00;46.85;;;;;;;13.77;64.61;100049.04;2879397;82;21125;-63
2021/03/04 12:41:54;;;;;;;73.52;50.48;;;;;;;13.94;65.47;100035.31;2848045;82;21175;-63
2021/03/04 12:45:59;;;;;;;87.33;54.08;;;;;;;14.11;65.26;100033.59;2855898;82;22068;-64
2021/03/04 12:50:04;;;;;;;76.62;52.60;;;;;;;14.05;64.63;100027.55;2862430;82;21600;-63
2021/03/04 12:54:09;;;;;;;79.67;55.20;;;;;;;14.06;64.46;100031.89;2835584;82;21577;-62
2021/03/04 12:58:16;;;;;;;82.08;52.30;;;;;;;14.17;65.50;100019.28;2834869;82;21166;-62
2021/03/04 13:02:19;;;;;;;76.47;48.87;;;;;;;14.24;63.20;100017.66;2818096;83;21138;-63
2021/03/04 13:06:24;;;;;;;75.78;52.83;;;;;;;14.35;64.27;100028.11;2820812;83;21193;-64
2021/03/04 13:10:31;;;;;;;74.53;50.28;;;;;;;14.46;64.55;100016.78;2792154;83;21134;-64
2021/03/04 13:14:34;;;;;;;80.77;48.63;;;;;;;14.47;63.42;100001.07;2831382;82;21184;-63
2021/03/04 13:18:38;;;;;;;72.05;48.80;;;;;;;14.43;63.02;100001.39;2830530;84;21176;-64
2021/03/04 13:22:42;;;;;;;82.72;50.25;;;;;;;14.50;63.33;100011.45;2846966;83;22065;-64
2021/03/04 13:26:46;;;;;;;67.05;44.83;;;;;;;14.54;62.31;99999.42;2849356;82;21192;-64
2021/03/04 13:30:50;;;;;;;86.47;57.43;;;;;;;14.47;62.41;100003.75;2821744;83;21181;-64
2021/03/04 13:34:54;;;;;;;70.92;48.02;;;;;;;14.54;64.27;99996.75;2756088;85;21161;-64
2021/03/04 13:38:59;;;;;;;76.85;48.85;;;;;;;14.70;63.81;99991.48;2774834;84;21265;-64
2021/03/04 13:43:02;;;;;;;72.05;53.68;;;;;;;14.74;62.96;99984.02;2791420;84;21200;-66
2021/03/04 13:47:05;;;;;;;78.52;54.03;;;;;;;14.48;62.10;99986.69;2809192;84;21611;-68
2021/03/04 13:51:09;;;;;;;74.92;53.40;;;;;;;14.37;63.61;99987.31;2813055;83;22332;-65
2021/03/04 13:55:12;;;;;;;86.67;54.45;;;;;;;14.28;63.19;99981.56;2765696;84;21149;-66
2021/03/04 13:59:18;;;;;;;82.80;55.43;;;;;;;14.02;63.72;99991.75;2779869;84;21611;-65
2021/03/04 14:03:21;;;;;;;65.55;51.58;;;;;;;13.78;64.46;100015.11;2772124;84;21897;-64
2021/03/04 14:07:26;;;;;;;82.85;50.25;;;;;;;13.61;63.10;100005.59;2752618;84;21160;-64
2021/03/04 14:11:31;;;;;;;71.10;47.73;;;;;;;13.46;62.35;100009.78;2834393;83;21197;-64
2021/03/04 14:15:35;;;;;;;68.00;48.10;;;;;;;13.27;62.97;100004.41;2791537;84;21149;-63
2021/03/04 14:19:39;;;;;;;78.15;49.83;;;;;;;13.05;62.88;100008.31;2800986;84;21197;-62
2021/03/04 14:23:42;;;;;;;78.97;50.10;;;;;;;12.80;62.87;100003.19;2844678;83;21162;-62
2021/03/04 14:27:46;;;;;;;69.32;48.75;;;;;;;12.55;63.31;100005.03;2844790;83;21667;-62
2021/03/04 14:31:49;;;;;;;74.85;49.75;;;;;;;12.33;64.09;100015.55;2835940;82;21168;-62
2021/03/04 14:35:54;;;;;;;80.62;51.68;;;;;;;12.08;64.06;100009.84;2755573;85;21188;-62
2021/03/04 14:40:00;;;;;;;;;;;;;;;11.96;65.59;100005.61;2735328;86;21631;-62
2021/03/04 14:44:05;;;;;;;74.27;48.02;;;;;;;11.84;66.40;100002.25;2766923;85;20179;-62
2021/03/04 14:48:10;;;;;;;70.97;52.17;;;;;;;11.78;67.49;100012.98;2806925;84;21174;-62
2021/03/04 14:52:14;;;;;;;76.12;52.05;;;;;;;11.72;66.74;100009.55;2804137;84;21161;-62
2021/03/04 14:56:16;;;;;;;76.00;52.58;;;;;;;11.62;66.45;100016.72;2780040;85;21133;-62
2021/03/04 15:00:21;;;;;;;69.97;46.42;;;;;;;11.47;67.16;100009.13;2783518;85;21165;-61
2021/03/04 15:04:26;;;;;;;84.47;55.05;;;;;;;11.38;68.54;100017.92;2783404;85;21137;-61
2021/03/04 15:08:29;;;;;;;79.25;55.05;;;;;;;11.20;69.32;100009.30;2784022;85;21177;-60
2021/03/04 15:12:32;;;;;;;77.60;53.28;;;;;;;11.03;70.81;100011.28;2783415;85;21157;-61
2021/03/04 15:16:36;;;;;;;84.00;49.90;;;;;;;10.83;71.63;100013.87;2783601;85;21200;-61
2021/03/04 15:20:39;;;;;;;91.17;55.25;;;;;;;10.69;73.04;100014.58;2781931;85;21164;-59
2021/03/04 15:24:43;;;;;;;88.85;56.73;;;;;;;10.55;74.07;100017.11;2738487;86;21196;-60
2021/03/04 15:28:45;;;;;;;81.42;51.98;;;;;;;10.37;74.51;100018.16;2738350;86;21173;-59
2021/03/04 15:32:49;;;;;;;72.55;52.27;;;;;;;10.13;75.76;100028.58;2802114;84;21173;-61
2021/03/04 15:36:52;;;;;;;75.28;51.25;;;;;;;10.04;76.69;100032.02;2813776;84;21149;-59
2021/03/04 15:40:56;;;;;;;85.20;54.55;;;;;;;9.90;76.68;100040.30;2827348;84;21125;-59
2021/03/04 15:44:59;;;;;;;80.28;53.42;;;;;;;9.70;76.75;100038.80;2819821;83;21660;-60
2021/03/04 15:49:03;;;;;;;70.22;49.90;;;;;;;9.49;77.07;100033.42;2819897;84;21168;-59
2021/03/04 15:53:06;;;;;;;71.70;48.48;;;;;;;9.27;76.88;100033.84;2820105;84;21175;-60
2021/03/04 15:57:10;;;;;;;79.42;46.75;;;;;;;9.06;77.40;100031.11;2820112;84;21582;-60
2021/03/04 16:01:15;;;;;;;75.67;51.83;;;;;;;8.88;77.61;100030.28;2819987;84;21701;-59
2021/03/04 16:05:18;;;;;;;74.20;50.48;;;;;;;8.85;78.30;100034.50;2819745;84;22063;-59
2021/03/04 16:09:25;;;;;;;62.58;44.00;;;;;;;8.84;79.23;100039.42;2799627;83;21184;-60
2021/03/04 16:13:28;;;;;;;73.15;50.63;;;;;;;8.88;79.67;100043.54;2819764;84;21458;-60
2021/03/04 16:17:33;;;;;;;77.62;52.00;;;;;;;8.95;79.68;100046.06;2819666;84;21666;-60
2021/03/04 16:21:37;;;;;;;65.97;43.25;;;;;;;9.00;78.58;100049.19;2819382;84;21176;-60
2021/03/04 16:25:39;;;;;;;70.00;45.58;;;;;;;9.04;78.31;100056.89;2819661;84;21191;-61
2021/03/04 16:29:46;;;;;;;72.60;49.30;;;;;;;9.04;78.76;100063.06;2820386;83;21172;-60
2021/03/04 16:33:50;;;;;;;75.40;49.70;;;;;;;8.99;78.73;100062.09;2826706;84;21652;-61
2021/03/04 16:37:54;;;;;;;82.53;52.93;;;;;;;8.99;78.44;100064.74;2826859;84;21190;-61
2021/03/04 16:42:00;;;;;;;75.62;46.58;;;;;;;8.91;78.07;100073.80;2826747;84;21177;-60
2021/03/04 16:46:03;;;;;;;79.13;50.97;;;;;;;8.82;75.68;100073.17;2826999;84;21427;-62
2021/03/04 16:50:09;;;;;;;80.00;48.98;;;;;;;8.74;75.09;100076.42;2826718;84;21170;-61
2021/03/04 16:54:12;;;;;;;77.70;49.13;;;;;;;8.70;74.84;100073.66;2825737;84;21181;-61
2021/03/04 16:58:17;;;;;;;66.85;47.48;;;;;;;8.64;74.86;100085.58;2794604;83;21631;-65
2021/03/04 17:02:22;;;;;;;87.50;54.50;;;;;;;8.61;74.64;100097.74;2789165;83;21181;-63
2021/03/04 17:06:27;;;;;;;72.80;45.85;;;;;;;8.50;74.04;100099.89;2791054;84;21185;-61
2021/03/04 17:10:31;;;;;;;81.80;47.98;;;;;;;8.40;74.35;100102.86;2789180;83;21150;-61
2021/03/04 17:14:36;;;;;;;80.87;48.58;;;;;;;8.32;74.88;100102.11;2824562;82;21114;-60
2021/03/04 17:18:41;;;;;;;73.20;48.55;;;;;;;8.33;75.07;100104.27;2824216;84;21644;-62
2021/03/04 17:22:47;;;;;;;71.72;47.35;;;;;;;8.36;74.99;100119.47;2795165;84;21178;-62
2021/03/04 17:26:50;;;;;;;81.97;51.05;;;;;;;8.29;73.83;100123.05;2811444;84;21203;-61
2021/03/04 17:30:54;;;;;;;65.60;40.28;;;;;;;8.29;73.83;100123.05;2805080;84;21145;-61
2021/03/04 17:35:00;;;;;;;72.67;42.45;;;;;;;8.08;73.12;100129.49;2832858;84;21185;-61
2021/03/04 17:39:05;;;;;;;85.70;48.28;;;;;;;7.93;73.05;100126.64;2831848;84;21129;-61
2021/03/04 17:43:10;;;;;;;74.53;44.27;;;;;;;7.93;73.43;100133.27;2830286;84;21171;-62
2021/03/04 17:47:14;;;;;;;70.65;46.25;;;;;;;7.88;73.14;100127.47;2829599;84;21142;-62
2021/03/04 17:51:19;;;;;;;69.70;43.90;;;;;;;7.82;73.37;100120.81;2831006;84;21114;-62
2021/03/04 17:55:24;;;;;;;67.03;38.28;;;;;;;7.77;72.87;100122.95;2826616;84;21156;-62
2021/03/04 17:59:29;;;;;;;77.42;42.10;;;;;;;7.70;72.84;100125.20;2805629;82;21221;-61
2021/03/04 18:03:33;;;;;;;71.50;41.63;;;;;;;7.64;72.87;100117.68;2830624;84;21188;-60
2021/03/04 18:07:37;;;;;;;58.98;40.00;;;;;;;7.64;73.01;100121.19;2832223;84;21145;-62
2021/03/04 18:11:41;;;;;;;72.75;42.75;;;;;;;7.60;73.48;100116.22;2830124;84;21607;-61
2021/03/04 18:15:45;;;;;;;68.75;42.03;;;;;;;7.61;73.50;100116.13;2830121;84;21643;-60
2021/03/04 18:19:49;;;;;;;65.17;40.17;;;;;;;7.67;73.87;100116.16;2830039;84;21206;-60
2021/03/04 18:23:54;;;;;;;65.85;40.65;;;;;;;7.69;73.54;100123.51;2778667;85;21170;-60
2021/03/04 18:27:57;;;;;;;68.67;37.28;;;;;;;7.70;72.87;100126.52;2780927;85;21204;-61
2021/03/04 18:32:01;;;;;;;73.47;41.53;;;;;;;7.70;72.87;100123.88;2824958;84;21114;-61
2021/03/04 18:36:05;;;;;;;60.08;34.88;;;;;;;7.67;72.55;100121.45;2803366;84;21165;-60
2021/03/04 18:40:09;;;;;;;60.00;37.45;;;;;;;7.64;72.89;100127.81;2827942;84;21157;-62
2021/03/04 18:44:13;;;;;;;58.73;37.45;;;;;;;7.66;72.99;100127.68;2778137;85;21180;-61